createdAt,value
2023-03-14T05:55:01.493Z,1284.1
2023-03-14T05:56:01.173Z,1353.4
2023-03-14T05:57:02.513Z,1387.3
2023-03-14T05:58:01.173Z,1421.1
2023-03-14T05:59:01.195Z,1447.8
2023-03-14T06:00:04.110Z,1511.1
2023-03-14T06:01:01.109Z,1574.3
2023-03-14T06:02:02.307Z,1678.3
2023-03-14T06:03:02.157Z,1782.2
2023-03-14T06:04:01.109Z,1880.2
2023-03-14T06:05:01.347Z,1963.3
2023-03-14T06:06:01.105Z,2046.5
2023-03-14T06:07:01.920Z,2210.9
2023-03-14T06:08:01.113Z,2375.3
2023-03-14T06:09:01.106Z,2540.3
2023-03-14T06:10:01.353Z,2848.3
2023-03-14T06:11:01.146Z,3156.2
2023-03-14T06:12:01.729Z,3515.2
2023-03-14T06:13:01.111Z,3874.2
2023-03-14T06:14:01.113Z,4233.2
2023-03-14T06:15:01.282Z,4402.1
2023-03-14T06:16:01.110Z,4570.9
2023-03-14T06:17:02.777Z,4767.9
2023-03-14T06:18:01.123Z,4964.9
2023-03-14T06:19:01.357Z,5161.9
2023-03-14T06:20:01.895Z,5326.4
2023-03-14T06:21:01.110Z,5490.9
2023-03-14T06:22:01.123Z,5587.9
2023-03-14T06:23:01.111Z,5684.9
2023-03-14T06:24:01.110Z,5781.9
2023-03-14T06:25:01.826Z,5940.3
2023-03-14T06:26:01.103Z,6098.7
2023-03-14T06:27:02.130Z,6208.5
2023-03-14T06:28:01.112Z,6318.4
2023-03-14T06:30:01.311Z,6285.1
2023-03-14T06:31:01.207Z,6405.4
2023-03-14T06:32:02.359Z,6777.8
2023-03-14T06:33:01.273Z,7074.1
2023-03-14T06:34:01.102Z,7370.3
2023-03-14T06:35:06.319Z,7876.3
2023-03-14T06:36:01.162Z,8429.6
2023-03-14T06:37:02.000Z,9126.5
2023-03-14T06:38:01.110Z,9786.7
2023-03-14T06:39:01.101Z,10446.8
2023-03-14T06:40:02.347Z,11103.7
2023-03-14T06:41:01.294Z,11556.3
2023-03-14T06:42:01.122Z,12010.7
2023-03-14T06:43:01.214Z,12471.5
2023-03-14T06:44:01.109Z,12932.3
2023-03-14T06:45:01.320Z,13480.7
2023-03-14T06:46:01.158Z,14029.2
2023-03-14T06:47:02.051Z,14363.8
2023-03-14T06:48:01.123Z,14698.4
2023-03-14T06:49:01.148Z,15033.0
2023-03-14T06:50:01.319Z,15289.8
2023-03-14T06:51:01.183Z,15546.6
2023-03-14T06:52:02.183Z,15908.2
2023-03-14T06:53:01.158Z,16269.8
2023-03-14T06:54:01.102Z,16631.4
2023-03-14T06:55:02.028Z,17522.1
2023-03-14T06:56:01.121Z,18412.9
2023-03-14T06:57:01.183Z,19838.3
2023-03-14T06:58:01.385Z,21263.7
2023-03-14T06:59:01.156Z,22689.1
2023-03-14T07:00:04.931Z,23750.9
2023-03-14T07:01:01.143Z,24812.8
2023-03-14T07:02:01.128Z,25290.9
2023-03-14T07:03:01.358Z,25768.9
2023-03-14T07:04:06.235Z,26247.0
2023-03-14T07:05:01.337Z,26475.1
2023-03-14T07:06:01.127Z,26703.1
2023-03-14T07:07:02.994Z,26416.8
2023-03-14T07:08:01.130Z,26130.5
2023-03-14T07:09:02.950Z,25844.1
2023-03-14T07:10:02.222Z,24601.0
2023-03-14T07:12:01.121Z,23320.5
2023-03-14T07:13:01.127Z,21503.6
2023-03-14T07:14:01.094Z,19686.7
2023-03-14T07:15:15.640Z,17733.4
2023-03-14T07:16:01.551Z,16199.1
2023-03-14T07:17:01.135Z,14653.0
2023-03-14T07:18:01.149Z,13652.4
2023-03-14T07:19:01.113Z,12651.8
2023-03-14T07:20:01.114Z,11754.3
2023-03-14T07:21:01.336Z,10974.9
2023-03-14T07:22:01.944Z,10405.8
2023-03-14T07:23:01.397Z,10102.7
2023-03-14T07:24:01.097Z,9799.7
2023-03-14T07:25:01.106Z,9491.1
2023-03-14T07:26:01.405Z,9613.5
2023-03-14T07:47:00.669Z,41241.7
2023-03-14T07:48:00.705Z,37180.0
2023-03-14T07:49:00.654Z,34743.0
2023-03-14T07:50:01.075Z,31374.2
2023-03-14T07:51:00.647Z,28967.9
2023-03-14T07:52:00.658Z,29794.8
2023-03-14T07:53:00.712Z,30437.9
2023-03-14T07:54:00.642Z,30952.4
2023-03-14T07:55:01.582Z,31621.5
2023-03-14T07:56:00.664Z,32179.0
2023-03-14T07:57:00.722Z,32726.8
2023-03-14T07:58:00.659Z,33196.3
2023-03-14T07:59:00.710Z,33603.2
2023-03-14T08:01:00.676Z,34234.5
2023-03-14T08:02:00.662Z,36364.7
2023-03-14T08:03:00.745Z,38494.8
2023-03-14T08:04:00.687Z,40624.9
2023-03-14T08:05:01.587Z,43494.5
2023-03-14T08:06:00.665Z,46364.1
2023-03-14T08:07:01.752Z,47866.2
2023-03-14T08:08:00.654Z,49368.3
2023-03-14T08:09:00.722Z,50870.3
2023-03-14T08:11:00.653Z,53808.2
2023-03-14T08:12:00.716Z,55153.4
2023-03-14T08:13:01.755Z,56498.6
2023-03-14T08:14:00.722Z,57843.8
2023-03-14T08:16:00.687Z,57134.2
2023-03-14T08:17:00.803Z,57158.0
2023-03-14T08:18:00.672Z,57181.8
2023-03-14T08:19:00.726Z,57205.6
2023-03-14T08:20:02.517Z,56694.3
2023-03-14T08:21:00.660Z,56183.1
2023-03-14T08:22:00.665Z,55094.8
2023-03-14T08:23:00.741Z,54006.5
2023-03-14T08:24:00.724Z,52918.3
2023-03-14T08:26:00.727Z,50396.0
2023-03-14T08:27:00.772Z,48837.4
2023-03-14T08:28:00.719Z,47278.8
2023-03-14T08:29:00.720Z,45720.2
2023-03-14T08:31:00.844Z,44919.1
2023-03-14T08:32:00.768Z,44922.9
2023-03-14T08:33:00.885Z,44926.7
2023-03-14T08:34:00.686Z,44930.5
2023-03-14T08:36:00.845Z,44552.1
2023-03-14T08:37:00.832Z,44271.5
2023-03-14T08:38:00.738Z,43990.9
2023-03-14T08:39:00.737Z,43710.3
2023-03-14T08:40:06.118Z,44063.7
2023-03-14T08:41:00.765Z,44417.1
2023-03-14T08:42:00.726Z,44790.7
2023-03-14T08:43:01.763Z,45164.2
2023-03-14T08:44:00.776Z,45537.7
2023-03-14T08:45:07.404Z,45648.3
2023-03-14T08:46:00.750Z,45758.9
2023-03-14T08:47:00.786Z,44865.6
2023-03-14T08:48:00.737Z,43972.3
2023-03-14T08:49:00.756Z,43078.9
2023-03-14T08:50:02.445Z,42344.8
2023-03-14T08:51:01.760Z,41610.7
2023-03-14T08:52:00.728Z,41378.6
2023-03-14T08:53:01.925Z,41146.5
2023-03-14T08:54:00.735Z,40914.5
2023-03-14T08:55:02.019Z,40027.9
2023-03-14T08:56:00.725Z,39141.3
2023-03-14T08:57:00.731Z,38508.1
2023-03-14T08:58:00.660Z,37875.0
2023-03-14T08:59:00.737Z,37241.9
2023-03-14T09:00:11.010Z,36237.3
2023-03-14T09:01:00.706Z,35232.8
2023-03-14T09:02:00.664Z,35060.1
2023-03-14T09:03:01.696Z,34887.3
2023-03-14T09:04:00.793Z,34714.6
2023-03-14T09:05:02.024Z,35143.5
2023-03-14T09:06:00.806Z,35572.3
2023-03-14T09:07:00.729Z,36159.9
2023-03-14T09:08:00.754Z,36747.5
2023-03-14T09:09:00.734Z,37335.1
2023-03-14T09:10:01.184Z,38537.8
2023-03-14T09:11:00.813Z,39740.5
2023-03-14T09:12:00.743Z,41502.1
2023-03-14T09:13:00.740Z,43263.8
2023-03-14T09:14:00.742Z,45025.5
2023-03-14T09:15:01.501Z,47060.7
2023-03-14T09:16:00.821Z,49096.0
2023-03-14T09:17:00.671Z,50650.3
2023-03-14T09:18:00.746Z,52204.5
2023-03-14T09:19:00.865Z,53758.8
2023-03-14T09:20:02.152Z,55295.3
2023-03-14T09:21:00.880Z,56831.7
2023-03-14T09:22:00.688Z,58339.8
2023-03-14T09:23:00.675Z,59847.9
2023-03-14T09:24:00.764Z,61355.9
2023-03-14T09:25:00.948Z,62293.5
2023-03-14T09:26:00.824Z,63231.1
2023-03-14T09:27:05.742Z,63691.5
2023-03-14T09:28:00.747Z,64151.8
2023-03-14T09:29:00.733Z,64612.1
2023-03-14T09:30:01.991Z,64988.5
2023-03-14T09:31:00.801Z,65364.8
2023-03-14T09:32:01.847Z,65421.5
2023-03-14T09:33:00.760Z,65478.3
2023-03-14T09:34:00.737Z,65535.0
2023-03-14T09:45:01.794Z,65535.0
2023-03-14T10:00:04.136Z,65535.0
2023-03-14T10:15:01.592Z,65535.0
2023-03-14T10:30:12.594Z,65535.0
2023-03-14T10:45:01.661Z,65535.0
2023-03-14T11:00:02.735Z,65535.0
2023-03-14T11:15:06.659Z,65535.0
2023-03-14T11:30:02.480Z,65535.0
2023-03-14T11:32:00.923Z,64108.5
2023-03-14T11:33:00.964Z,62681.9
2023-03-14T11:34:00.718Z,61255.4
2023-03-14T11:45:02.003Z,61255.4
2023-03-14T11:47:00.992Z,62681.9
2023-03-14T11:48:00.851Z,64108.5
2023-03-14T11:49:00.724Z,65535.0
2023-03-14T12:00:04.691Z,65535.0
2023-03-14T12:15:02.644Z,65535.0
2023-03-14T12:30:05.383Z,65535.0
2023-03-14T12:45:02.569Z,65535.0
2023-03-14T13:00:05.127Z,65535.0
2023-03-14T13:15:02.332Z,65535.0
2023-03-14T13:30:01.761Z,65535.0
2023-03-14T13:45:02.361Z,65535.0
2023-03-14T14:00:04.042Z,65535.0
2023-03-14T14:15:02.170Z,65535.0
2023-03-14T14:30:02.736Z,65535.0
2023-03-14T14:45:03.210Z,65535.0
2023-03-14T15:00:03.684Z,65535.0
2023-03-14T15:10:01.964Z,65512.1
2023-03-14T15:11:00.821Z,65489.3
2023-03-14T15:12:00.779Z,64531.8
2023-03-14T15:13:00.778Z,63574.3
2023-03-14T15:14:00.813Z,62616.9
2023-03-14T15:15:01.709Z,61925.1
2023-03-14T15:16:00.879Z,61233.3
2023-03-14T15:17:00.783Z,60669.3
2023-03-14T15:18:01.018Z,60105.4
2023-03-14T15:19:01.865Z,59541.5
2023-03-14T15:20:01.621Z,58911.1
2023-03-14T15:21:00.789Z,58280.7
2023-03-14T15:22:00.785Z,57434.8
2023-03-14T15:23:00.788Z,56588.9
2023-03-14T15:24:00.786Z,55743.1
2023-03-14T15:25:01.644Z,54785.6
2023-03-14T15:26:00.798Z,53828.1
2023-03-14T15:27:00.804Z,53820.5
2023-03-14T15:28:00.801Z,53812.8
2023-03-14T15:29:00.788Z,53805.1
2023-03-14T15:30:03.834Z,53766.1
2023-03-14T15:31:00.918Z,53727.1
2023-03-14T15:32:00.870Z,53646.9
2023-03-14T15:33:00.821Z,53566.6
2023-03-14T15:34:00.789Z,53486.3
2023-03-14T15:35:02.450Z,54116.7
2023-03-14T15:36:00.826Z,54747.1
2023-03-14T15:37:00.788Z,55500.0
2023-03-14T15:38:00.784Z,56252.9
2023-03-14T15:39:00.785Z,57005.7
2023-03-14T15:40:00.995Z,57986.1
2023-03-14T15:41:00.784Z,58966.4
2023-03-14T15:42:00.787Z,59931.5
2023-03-14T15:43:00.782Z,60896.7
2023-03-14T15:44:00.840Z,61861.8
2023-03-14T15:45:02.484Z,61110.1
2023-03-14T15:46:01.907Z,60358.3
2023-03-14T15:47:00.780Z,58944.3
2023-03-14T15:48:00.818Z,57530.2
2023-03-14T15:49:00.789Z,56116.1
2023-03-14T15:50:01.846Z,54206.6
2023-03-14T15:51:00.785Z,52297.1
2023-03-14T15:52:00.795Z,50309.8
2023-03-14T15:53:00.800Z,48322.5
2023-03-14T15:54:00.803Z,46335.3
2023-03-14T15:55:01.884Z,44255.7
2023-03-14T15:56:00.788Z,42176.1
2023-03-14T15:57:00.795Z,40463.3
2023-03-14T15:58:00.798Z,38750.5
2023-03-14T15:59:00.797Z,37037.7
2023-03-14T16:00:04.376Z,36590.3
2023-03-14T16:01:00.848Z,36142.9
2023-03-14T16:02:00.852Z,36113.4
2023-03-14T16:03:00.796Z,36083.9
2023-03-14T16:04:00.930Z,36054.5
2023-03-14T16:05:07.138Z,35630.5
2023-03-14T16:06:00.786Z,35206.6
2023-03-14T16:07:00.794Z,34950.7
2023-03-14T16:08:00.799Z,34694.7
2023-03-14T16:09:00.789Z,34438.8
2023-03-14T16:10:01.053Z,34071.7
2023-03-14T16:11:00.852Z,33704.7
2023-03-14T16:12:00.793Z,32934.1
2023-03-14T16:13:00.782Z,32163.5
2023-03-14T16:14:00.787Z,31392.9
2023-03-14T16:15:02.537Z,31025.3
2023-03-14T16:16:00.929Z,30657.8
2023-03-14T16:17:00.897Z,30998.2
2023-03-14T16:18:02.422Z,31338.6
2023-03-14T16:19:00.851Z,31679.0
2023-03-14T16:20:01.943Z,32309.1
2023-03-14T16:21:05.942Z,32939.3
2023-03-14T16:22:00.861Z,32738.1
2023-03-14T16:23:00.813Z,32536.9
2023-03-14T16:24:00.783Z,32335.7
2023-03-14T16:25:02.608Z,31965.9
2023-03-14T16:26:00.824Z,31596.2
2023-03-14T16:27:00.864Z,31193.7
2023-03-14T16:28:10.560Z,30791.3
2023-03-14T16:29:00.788Z,30388.8
2023-03-14T16:30:01.673Z,29738.7
2023-03-14T16:31:00.817Z,29088.5
2023-03-14T16:32:00.885Z,27781.7
2023-03-14T16:33:00.886Z,26474.9
2023-03-14T16:34:00.877Z,25168.1
2023-03-14T16:35:01.928Z,23730.3
2023-03-14T16:36:01.082Z,22292.5
2023-03-14T16:37:00.854Z,21783.7
2023-03-14T16:38:00.799Z,21274.8
2023-03-14T16:39:00.792Z,20765.9
2023-03-14T16:40:14.257Z,20445.5
2023-03-14T16:41:00.984Z,20125.0
2023-03-14T16:42:00.796Z,19886.1
2023-03-14T16:43:15.193Z,19647.1
2023-03-14T16:44:00.854Z,19408.2
2023-03-14T16:45:01.825Z,19157.9
2023-03-14T16:46:01.337Z,18907.5
2023-03-14T16:47:00.892Z,18678.1
2023-03-14T16:48:00.891Z,18448.6
2023-03-14T16:49:01.113Z,18219.1
2023-03-14T16:50:01.829Z,17894.2
2023-03-14T16:51:01.284Z,17569.3
2023-03-14T16:52:00.914Z,17050.0
2023-03-14T16:53:00.800Z,16530.7
2023-03-14T16:54:00.794Z,16011.5
2023-03-14T16:55:01.527Z,15513.8
2023-03-14T16:56:00.796Z,15016.1
2023-03-14T16:57:00.815Z,14442.8
2023-03-14T16:58:01.079Z,13869.5
2023-03-14T16:59:00.869Z,13296.1
2023-03-14T17:00:04.453Z,12738.9
2023-03-14T17:01:00.996Z,12181.7
2023-03-14T17:02:00.915Z,11654.7
2023-03-14T17:03:00.793Z,11127.7
2023-03-14T17:04:00.928Z,10600.7
2023-03-14T17:05:02.306Z,10197.6
2023-03-14T17:06:00.826Z,9794.5
2023-03-14T17:07:00.793Z,9414.9
2023-03-14T17:08:00.882Z,9035.4
2023-03-14T17:09:00.810Z,8655.9
2023-03-14T17:10:01.822Z,8255.0
2023-03-14T17:11:00.904Z,7854.1
2023-03-14T17:12:00.799Z,7355.0
2023-03-14T17:13:00.788Z,6855.9
2023-03-14T17:14:00.795Z,6356.7
2023-03-14T17:15:07.993Z,5860.0
2023-03-14T17:16:00.925Z,5363.3
2023-03-14T17:17:00.787Z,4898.4
2023-03-14T17:18:00.792Z,4433.5
2023-03-14T17:19:00.822Z,3968.7
2023-03-14T17:20:02.080Z,3553.5
2023-03-14T17:21:00.832Z,3138.3
2023-03-14T17:22:18.769Z,2845.7
2023-03-14T17:23:00.776Z,2553.1
2023-03-14T17:24:00.848Z,2260.5
2023-03-14T17:26:01.112Z,1843.1
2023-03-14T17:27:00.854Z,1781.6
2023-03-14T17:28:01.828Z,1720.1
2023-03-14T17:29:00.798Z,1658.5
2023-03-14T17:30:02.783Z,1625.9
2023-03-14T17:31:00.827Z,1593.3
2023-03-14T17:32:00.812Z,1563.1
2023-03-14T17:33:00.874Z,1532.8
2023-03-14T17:34:00.914Z,1502.5
2023-03-14T17:36:00.908Z,1428.4
2023-03-14T17:37:00.803Z,1331.0
2023-03-14T17:38:00.818Z,1233.6
2023-03-14T17:39:00.801Z,1136.2
2023-03-14T17:41:01.912Z,933.5
2023-03-14T17:42:00.801Z,839.4
2023-03-14T17:43:00.827Z,745.3
2023-03-14T17:44:00.804Z,651.1
2023-03-14T17:46:01.002Z,503.1
2023-03-14T17:47:02.122Z,446.6
2023-03-14T17:48:00.818Z,390.1
2023-03-14T17:49:00.813Z,333.5
2023-03-14T17:50:09.014Z,290.3
2023-03-14T17:51:02.297Z,247.0
2023-03-14T17:52:00.818Z,215.8
2023-03-14T17:53:00.842Z,184.6
2023-03-14T17:54:00.816Z,153.4
2023-03-14T17:55:01.919Z,131.5
2023-03-14T17:56:01.034Z,109.7
2023-03-14T17:57:00.818Z,95.3
2023-03-14T17:58:00.814Z,80.3
2023-03-14T17:59:00.828Z,65.3
2023-03-14T18:01:00.822Z,45.7
2023-03-14T18:02:00.969Z,39.7
2023-03-14T18:03:01.220Z,33.5
2023-03-14T18:04:00.843Z,27.2
2023-03-14T18:05:13.437Z,23.3
2023-03-14T18:06:00.818Z,19.3
2023-03-14T18:07:00.822Z,16.9
2023-03-14T18:08:00.820Z,14.4
2023-03-14T18:09:00.822Z,11.9
2023-03-14T18:10:02.002Z,10.3
2023-03-14T18:11:00.898Z,8.7
2023-03-14T18:12:07.336Z,7.1
2023-03-14T18:13:01.866Z,6.1
2023-03-14T18:14:00.821Z,5.1
2023-03-14T18:15:07.615Z,4.4
2023-03-14T18:16:01.163Z,3.7
2023-03-14T18:17:00.819Z,3.1
2023-03-14T18:18:00.824Z,2.7
2023-03-14T18:19:00.823Z,2.3
2023-03-14T18:20:01.037Z,1.9
2023-03-14T18:21:00.849Z,1.6
2023-03-14T18:22:00.830Z,1.3
2023-03-14T18:23:00.881Z,1.1
2023-03-14T18:24:00.826Z,0.9
2023-03-14T18:25:09.492Z,0.7
2023-03-14T18:26:00.856Z,0.6
2023-03-14T18:27:00.822Z,0.5
2023-03-14T18:28:01.885Z,0.4
2023-03-14T18:29:00.832Z,0.3
2023-03-14T18:30:01.801Z,0.3
2023-03-14T18:31:00.883Z,0.2
2023-03-14T18:32:00.863Z,0.1
